Terminal Aerodrome Forecast
Issued by NWS

Home | Current Version | Previous Version | Text Only | Print | Product List | Glossary On
Versions: 1 2 3 4 5 6 7 8 9 10 11 12 13
000
FTUS42 KMLB 250541
TAFTIX
TAF
KTIX 250541Z 2506/2606 00000KT P6SM BKN200
     FM251400 15008KT P6SM SCT035
     FM251800 20011G17KT P6SM BKN035
     FM252100 17010KT P6SM VCTS SCT035CB BKN060
     FM260100 23009KT P6SM SCT060 BKN200
      AMD NOT SKED TIL 251200=

USA.gov is the U.S. government's official web portal to all federal, state and local government web resources and services.